sensor_id;sensor_type;location;lat;lon;timestamp;P1;durP1;ratioP1;P2;durP2;ratioP2
43626;SDS011;29217;52.586;13.442;2023-04-24T00:00:14;7.30;;;4.32;;
43626;SDS011;29217;52.586;13.442;2023-04-24T00:02:43;8.35;;;4.80;;
43626;SDS011;29217;52.586;13.442;2023-04-24T00:05:13;7.93;;;4.90;;
43626;SDS011;29217;52.586;13.442;2023-04-24T00:07:40;8.77;;;5.57;;
43626;SDS011;29217;52.586;13.442;2023-04-24T00:10:06;7.88;;;5.57;;
43626;SDS011;29217;52.586;13.442;2023-04-24T00:12:32;8.52;;;5.47;;
43626;SDS011;29217;52.586;13.442;2023-04-24T00:14:58;8.77;;;4.82;;
43626;SDS011;29217;52.586;13.442;2023-04-24T00:17:24;7.47;;;5.00;;
43626;SDS011;29217;52.586;13.442;2023-04-24T00:19:50;10.50;;;5.63;;
43626;SDS011;29217;52.586;13.442;2023-04-24T00:22:23;6.88;;;5.15;;
43626;SDS011;29217;52.586;13.442;2023-04-24T00:24:49;8.23;;;4.95;;
43626;SDS011;29217;52.586;13.442;2023-04-24T00:27:15;6.18;;;4.53;;
43626;SDS011;29217;52.586;13.442;2023-04-24T00:29:41;8.90;;;4.85;;
43626;SDS011;29217;52.586;13.442;2023-04-24T00:32:07;7.18;;;4.97;;
43626;SDS011;29217;52.586;13.442;2023-04-24T00:34:33;9.50;;;4.28;;
43626;SDS011;29217;52.586;13.442;2023-04-24T00:36:59;6.53;;;4.60;;
43626;SDS011;29217;52.586;13.442;2023-04-24T00:39:25;5.30;;;4.25;;
43626;SDS011;29217;52.586;13.442;2023-04-24T00:41:51;7.75;;;5.07;;
43626;SDS011;29217;52.586;13.442;2023-04-24T00:44:17;5.80;;;4.03;;
43626;SDS011;29217;52.586;13.442;2023-04-24T00:46:43;6.15;;;4.93;;
43626;SDS011;29217;52.586;13.442;2023-04-24T00:49:09;6.57;;;4.63;;
43626;SDS011;29217;52.586;13.442;2023-04-24T00:51:35;7.22;;;4.93;;
43626;SDS011;29217;52.586;13.442;2023-04-24T00:54:01;6.85;;;4.75;;
43626;SDS011;29217;52.586;13.442;2023-04-24T00:56:27;7.32;;;4.65;;
43626;SDS011;29217;52.586;13.442;2023-04-24T00:58:53;8.02;;;4.38;;
43626;SDS011;29217;52.586;13.442;2023-04-24T01:01:20;7.03;;;4.32;;
43626;SDS011;29217;52.586;13.442;2023-04-24T01:03:46;9.23;;;4.97;;
43626;SDS011;29217;52.586;13.442;2023-04-24T01:06:15;7.80;;;4.82;;
43626;SDS011;29217;52.586;13.442;2023-04-24T01:08:41;7.35;;;5.00;;
43626;SDS011;29217;52.586;13.442;2023-04-24T01:11:07;6.55;;;4.43;;
43626;SDS011;29217;52.586;13.442;2023-04-24T01:13:33;7.28;;;4.82;;
43626;SDS011;29217;52.586;13.442;2023-04-24T01:15:59;6.18;;;4.82;;
43626;SDS011;29217;52.586;13.442;2023-04-24T01:18:26;7.28;;;4.72;;
43626;SDS011;29217;52.586;13.442;2023-04-24T01:20:53;8.35;;;5.03;;
43626;SDS011;29217;52.586;13.442;2023-04-24T01:23:19;7.53;;;4.78;;
43626;SDS011;29217;52.586;13.442;2023-04-24T01:25:45;9.55;;;5.32;;
43626;SDS011;29217;52.586;13.442;2023-04-24T01:28:11;6.82;;;4.85;;
43626;SDS011;29217;52.586;13.442;2023-04-24T01:30:39;6.80;;;4.82;;
43626;SDS011;29217;52.586;13.442;2023-04-24T01:33:05;7.40;;;5.28;;
43626;SDS011;29217;52.586;13.442;2023-04-24T01:35:31;8.23;;;5.40;;
43626;SDS011;29217;52.586;13.442;2023-04-24T01:37:58;8.73;;;5.18;;
43626;SDS011;29217;52.586;13.442;2023-04-24T01:40:24;8.93;;;5.32;;
43626;SDS011;29217;52.586;13.442;2023-04-24T01:42:50;9.02;;;5.82;;
43626;SDS011;29217;52.586;13.442;2023-04-24T01:45:16;10.82;;;5.88;;
43626;SDS011;29217;52.586;13.442;2023-04-24T01:47:42;13.20;;;5.80;;
43626;SDS011;29217;52.586;13.442;2023-04-24T01:50:09;7.63;;;5.43;;
43626;SDS011;29217;52.586;13.442;2023-04-24T01:52:35;8.93;;;5.75;;
43626;SDS011;29217;52.586;13.442;2023-04-24T01:55:04;11.63;;;5.90;;
43626;SDS011;29217;52.586;13.442;2023-04-24T01:57:32;8.02;;;5.32;;
43626;SDS011;29217;52.586;13.442;2023-04-24T01:59:58;8.88;;;5.35;;
43626;SDS011;29217;52.586;13.442;2023-04-24T02:02:25;9.38;;;5.38;;
43626;SDS011;29217;52.586;13.442;2023-04-24T02:04:55;8.85;;;5.63;;
43626;SDS011;29217;52.586;13.442;2023-04-24T02:07:22;9.32;;;5.75;;
43626;SDS011;29217;52.586;13.442;2023-04-24T02:09:48;9.07;;;5.57;;
43626;SDS011;29217;52.586;13.442;2023-04-24T02:12:14;10.32;;;5.80;;
43626;SDS011;29217;52.586;13.442;2023-04-24T02:14:40;8.68;;;5.70;;
43626;SDS011;29217;52.586;13.442;2023-04-24T02:17:07;10.23;;;6.95;;
43626;SDS011;29217;52.586;13.442;2023-04-24T02:19:33;8.10;;;5.47;;
43626;SDS011;29217;52.586;13.442;2023-04-24T02:21:59;9.07;;;5.40;;
43626;SDS011;29217;52.586;13.442;2023-04-24T02:24:25;8.63;;;6.00;;
43626;SDS011;29217;52.586;13.442;2023-04-24T02:26:51;7.32;;;5.38;;
43626;SDS011;29217;52.586;13.442;2023-04-24T02:29:17;8.18;;;5.90;;
43626;SDS011;29217;52.586;13.442;2023-04-24T02:31:43;12.43;;;5.38;;
43626;SDS011;29217;52.586;13.442;2023-04-24T02:34:09;7.00;;;5.40;;
43626;SDS011;29217;52.586;13.442;2023-04-24T02:36:35;8.15;;;5.63;;
43626;SDS011;29217;52.586;13.442;2023-04-24T02:39:01;8.82;;;5.57;;
43626;SDS011;29217;52.586;13.442;2023-04-24T02:41:28;9.88;;;5.53;;
43626;SDS011;29217;52.586;13.442;2023-04-24T02:43:57;8.85;;;5.80;;
43626;SDS011;29217;52.586;13.442;2023-04-24T02:46:23;10.60;;;5.45;;
43626;SDS011;29217;52.586;13.442;2023-04-24T02:48:49;8.18;;;5.88;;
43626;SDS011;29217;52.586;13.442;2023-04-24T02:51:15;10.05;;;6.20;;
43626;SDS011;29217;52.586;13.442;2023-04-24T02:53:41;6.85;;;5.07;;
43626;SDS011;29217;52.586;13.442;2023-04-24T02:56:07;7.75;;;5.30;;
43626;SDS011;29217;52.586;13.442;2023-04-24T02:58:33;6.68;;;5.22;;
43626;SDS011;29217;52.586;13.442;2023-04-24T03:01:00;9.88;;;6.32;;
43626;SDS011;29217;52.586;13.442;2023-04-24T03:03:26;9.93;;;6.18;;
43626;SDS011;29217;52.586;13.442;2023-04-24T03:05:52;8.25;;;5.72;;
43626;SDS011;29217;52.586;13.442;2023-04-24T03:08:18;10.15;;;6.10;;
43626;SDS011;29217;52.586;13.442;2023-04-24T03:10:44;8.13;;;6.10;;
43626;SDS011;29217;52.586;13.442;2023-04-24T03:13:10;9.27;;;6.07;;
43626;SDS011;29217;52.586;13.442;2023-04-24T03:15:36;10.35;;;6.40;;
43626;SDS011;29217;52.586;13.442;2023-04-24T03:18:02;10.35;;;6.95;;
43626;SDS011;29217;52.586;13.442;2023-04-24T03:20:28;9.73;;;6.50;;
43626;SDS011;29217;52.586;13.442;2023-04-24T03:22:54;13.55;;;7.72;;
43626;SDS011;29217;52.586;13.442;2023-04-24T03:25:22;11.20;;;7.38;;
43626;SDS011;29217;52.586;13.442;2023-04-24T03:27:48;9.90;;;6.90;;
43626;SDS011;29217;52.586;13.442;2023-04-24T03:30:14;11.10;;;6.80;;
43626;SDS011;29217;52.586;13.442;2023-04-24T03:32:39;12.48;;;6.57;;
43626;SDS011;29217;52.586;13.442;2023-04-24T03:35:06;9.60;;;6.28;;
43626;SDS011;29217;52.586;13.442;2023-04-24T03:37:33;13.18;;;7.22;;
43626;SDS011;29217;52.586;13.442;2023-04-24T03:39:59;9.25;;;6.25;;
43626;SDS011;29217;52.586;13.442;2023-04-24T03:42:25;9.23;;;6.15;;
43626;SDS011;29217;52.586;13.442;2023-04-24T03:44:51;9.32;;;6.35;;
43626;SDS011;29217;52.586;13.442;2023-04-24T03:47:18;9.82;;;6.55;;
43626;SDS011;29217;52.586;13.442;2023-04-24T03:49:43;10.00;;;6.03;;
43626;SDS011;29217;52.586;13.442;2023-04-24T03:52:09;9.05;;;6.00;;
43626;SDS011;29217;52.586;13.442;2023-04-24T03:54:35;13.05;;;6.97;;
43626;SDS011;29217;52.586;13.442;2023-04-24T03:57:01;10.00;;;7.07;;
43626;SDS011;29217;52.586;13.442;2023-04-24T03:59:29;10.38;;;6.95;;
43626;SDS011;29217;52.586;13.442;2023-04-24T04:01:55;9.50;;;6.55;;
43626;SDS011;29217;52.586;13.442;2023-04-24T04:04:21;10.15;;;7.25;;
43626;SDS011;29217;52.586;13.442;2023-04-24T04:06:47;9.57;;;6.30;;
43626;SDS011;29217;52.586;13.442;2023-04-24T04:09:14;8.65;;;6.18;;
43626;SDS011;29217;52.586;13.442;2023-04-24T04:11:40;8.68;;;5.93;;
43626;SDS011;29217;52.586;13.442;2023-04-24T04:14:06;8.85;;;5.93;;
43626;SDS011;29217;52.586;13.442;2023-04-24T04:16:32;8.90;;;5.90;;
43626;SDS011;29217;52.586;13.442;2023-04-24T04:18:58;11.15;;;6.00;;
43626;SDS011;29217;52.586;13.442;2023-04-24T04:21:24;9.18;;;6.20;;
43626;SDS011;29217;52.586;13.442;2023-04-24T04:23:52;8.00;;;5.70;;
43626;SDS011;29217;52.586;13.442;2023-04-24T04:26:18;8.68;;;5.88;;
43626;SDS011;29217;52.586;13.442;2023-04-24T04:28:44;9.02;;;5.43;;
43626;SDS011;29217;52.586;13.442;2023-04-24T04:31:10;7.00;;;5.15;;
43626;SDS011;29217;52.586;13.442;2023-04-24T04:33:36;9.95;;;5.57;;
43626;SDS011;29217;52.586;13.442;2023-04-24T04:36:04;8.98;;;5.53;;
43626;SDS011;29217;52.586;13.442;2023-04-24T04:38:30;7.72;;;5.18;;
43626;SDS011;29217;52.586;13.442;2023-04-24T04:40:56;10.00;;;5.60;;
43626;SDS011;29217;52.586;13.442;2023-04-24T04:43:23;8.13;;;5.22;;
43626;SDS011;29217;52.586;13.442;2023-04-24T04:45:49;9.30;;;4.97;;
43626;SDS011;29217;52.586;13.442;2023-04-24T04:48:16;8.93;;;5.32;;
43626;SDS011;29217;52.586;13.442;2023-04-24T04:50:42;6.70;;;4.95;;
43626;SDS011;29217;52.586;13.442;2023-04-24T04:53:08;7.20;;;4.82;;
43626;SDS011;29217;52.586;13.442;2023-04-24T04:55:35;6.57;;;4.47;;
43626;SDS011;29217;52.586;13.442;2023-04-24T04:58:01;7.03;;;4.72;;
43626;SDS011;29217;52.586;13.442;2023-04-24T05:00:27;6.95;;;5.18;;
43626;SDS011;29217;52.586;13.442;2023-04-24T05:02:58;8.35;;;4.90;;
43626;SDS011;29217;52.586;13.442;2023-04-24T05:05:24;6.03;;;4.70;;
43626;SDS011;29217;52.586;13.442;2023-04-24T05:07:50;7.32;;;4.75;;
43626;SDS011;29217;52.586;13.442;2023-04-24T05:10:16;7.05;;;4.80;;
43626;SDS011;29217;52.586;13.442;2023-04-24T05:12:42;7.40;;;5.10;;
43626;SDS011;29217;52.586;13.442;2023-04-24T05:15:08;6.72;;;4.65;;
43626;SDS011;29217;52.586;13.442;2023-04-24T05:17:35;9.52;;;4.32;;
43626;SDS011;29217;52.586;13.442;2023-04-24T05:20:02;7.00;;;4.15;;
43626;SDS011;29217;52.586;13.442;2023-04-24T05:22:30;5.82;;;4.68;;
43626;SDS011;29217;52.586;13.442;2023-04-24T05:24:56;6.28;;;4.20;;
43626;SDS011;29217;52.586;13.442;2023-04-24T05:27:22;7.35;;;4.53;;
43626;SDS011;29217;52.586;13.442;2023-04-24T05:29:48;6.57;;;3.85;;
43626;SDS011;29217;52.586;13.442;2023-04-24T05:32:14;5.53;;;3.67;;
43626;SDS011;29217;52.586;13.442;2023-04-24T05:34:40;5.55;;;4.25;;
43626;SDS011;29217;52.586;13.442;2023-04-24T05:37:06;5.55;;;3.60;;
43626;SDS011;29217;52.586;13.442;2023-04-24T05:39:34;4.15;;;3.33;;
43626;SDS011;29217;52.586;13.442;2023-04-24T05:42:01;5.78;;;3.78;;
43626;SDS011;29217;52.586;13.442;2023-04-24T05:44:28;5.18;;;3.10;;
43626;SDS011;29217;52.586;13.442;2023-04-24T05:46:54;5.75;;;3.60;;
43626;SDS011;29217;52.586;13.442;2023-04-24T05:49:20;4.22;;;2.85;;
43626;SDS011;29217;52.586;13.442;2023-04-24T05:51:46;7.40;;;3.10;;
43626;SDS011;29217;52.586;13.442;2023-04-24T05:54:12;3.22;;;2.72;;
43626;SDS011;29217;52.586;13.442;2023-04-24T05:56:39;6.95;;;2.92;;
43626;SDS011;29217;52.586;13.442;2023-04-24T05:59:05;3.30;;;2.42;;
43626;SDS011;29217;52.586;13.442;2023-04-24T06:01:32;3.85;;;2.63;;
43626;SDS011;29217;52.586;13.442;2023-04-24T06:03:58;5.57;;;2.80;;
43626;SDS011;29217;52.586;13.442;2023-04-24T06:06:24;3.72;;;2.60;;
43626;SDS011;29217;52.586;13.442;2023-04-24T06:08:50;4.78;;;2.47;;
43626;SDS011;29217;52.586;13.442;2023-04-24T06:11:16;3.55;;;2.30;;
43626;SDS011;29217;52.586;13.442;2023-04-24T06:13:42;2.95;;;2.40;;
43626;SDS011;29217;52.586;13.442;2023-04-24T06:16:08;3.75;;;2.88;;
43626;SDS011;29217;52.586;13.442;2023-04-24T06:18:35;4.15;;;2.45;;
43626;SDS011;29217;52.586;13.442;2023-04-24T06:21:01;7.93;;;3.00;;
43626;SDS011;29217;52.586;13.442;2023-04-24T06:23:27;3.20;;;2.30;;
43626;SDS011;29217;52.586;13.442;2023-04-24T06:25:52;3.03;;;1.95;;
43626;SDS011;29217;52.586;13.442;2023-04-24T06:28:19;3.05;;;2.40;;
43626;SDS011;29217;52.586;13.442;2023-04-24T06:30:45;5.63;;;2.22;;
43626;SDS011;29217;52.586;13.442;2023-04-24T06:33:10;5.78;;;2.20;;
43626;SDS011;29217;52.586;13.442;2023-04-24T06:35:37;2.90;;;2.03;;
43626;SDS011;29217;52.586;13.442;2023-04-24T06:38:03;3.13;;;2.00;;
43626;SDS011;29217;52.586;13.442;2023-04-24T06:40:29;5.55;;;2.05;;
43626;SDS011;29217;52.586;13.442;2023-04-24T06:42:55;2.45;;;2.10;;
43626;SDS011;29217;52.586;13.442;2023-04-24T06:45:22;2.65;;;2.00;;
43626;SDS011;29217;52.586;13.442;2023-04-24T06:47:48;3.60;;;1.90;;
43626;SDS011;29217;52.586;13.442;2023-04-24T06:50:15;2.00;;;1.80;;
43626;SDS011;29217;52.586;13.442;2023-04-24T06:52:41;2.80;;;1.65;;
43626;SDS011;29217;52.586;13.442;2023-04-24T06:55:08;3.05;;;1.70;;
43626;SDS011;29217;52.586;13.442;2023-04-24T06:57:35;2.53;;;1.60;;
43626;SDS011;29217;52.586;13.442;2023-04-24T07:00:01;1.48;;;1.38;;
43626;SDS011;29217;52.586;13.442;2023-04-24T07:02:28;1.83;;;1.60;;
43626;SDS011;29217;52.586;13.442;2023-04-24T07:04:54;5.10;;;1.80;;
43626;SDS011;29217;52.586;13.442;2023-04-24T07:07:20;3.83;;;1.50;;
43626;SDS011;29217;52.586;13.442;2023-04-24T07:09:46;3.33;;;1.20;;
43626;SDS011;29217;52.586;13.442;2023-04-24T07:12:13;2.78;;;1.30;;
43626;SDS011;29217;52.586;13.442;2023-04-24T07:14:39;1.83;;;1.38;;
43626;SDS011;29217;52.586;13.442;2023-04-24T07:17:05;6.80;;;1.52;;
43626;SDS011;29217;52.586;13.442;2023-04-24T07:19:34;3.45;;;1.30;;
43626;SDS011;29217;52.586;13.442;2023-04-24T07:22:01;1.20;;;0.90;;
43626;SDS011;29217;52.586;13.442;2023-04-24T07:24:28;1.10;;;1.00;;
43626;SDS011;29217;52.586;13.442;2023-04-24T07:26:54;1.77;;;1.23;;
43626;SDS011;29217;52.586;13.442;2023-04-24T07:29:20;2.45;;;0.80;;
43626;SDS011;29217;52.586;13.442;2023-04-24T07:31:46;1.50;;;0.95;;
43626;SDS011;29217;52.586;13.442;2023-04-24T07:34:12;1.60;;;1.00;;
43626;SDS011;29217;52.586;13.442;2023-04-24T07:36:38;2.00;;;1.08;;
43626;SDS011;29217;52.586;13.442;2023-04-24T07:39:05;1.23;;;0.75;;
43626;SDS011;29217;52.586;13.442;2023-04-24T07:41:31;2.63;;;0.90;;
43626;SDS011;29217;52.586;13.442;2023-04-24T07:43:57;8.27;;;0.70;;
43626;SDS011;29217;52.586;13.442;2023-04-24T07:46:23;1.27;;;0.85;;
43626;SDS011;29217;52.586;13.442;2023-04-24T07:48:50;1.10;;;1.00;;
43626;SDS011;29217;52.586;13.442;2023-04-24T07:51:16;4.10;;;1.13;;
43626;SDS011;29217;52.586;13.442;2023-04-24T07:53:42;1.27;;;0.90;;
43626;SDS011;29217;52.586;13.442;2023-04-24T07:56:08;0.70;;;0.65;;
43626;SDS011;29217;52.586;13.442;2023-04-24T07:58:34;0.80;;;0.73;;
43626;SDS011;29217;52.586;13.442;2023-04-24T08:01:00;0.70;;;0.70;;
43626;SDS011;29217;52.586;13.442;2023-04-24T08:03:26;0.77;;;0.70;;
43626;SDS011;29217;52.586;13.442;2023-04-24T08:05:52;7.75;;;0.95;;
43626;SDS011;29217;52.586;13.442;2023-04-24T08:08:20;2.72;;;0.90;;
43626;SDS011;29217;52.586;13.442;2023-04-24T08:10:47;1.20;;;0.73;;
43626;SDS011;29217;52.586;13.442;2023-04-24T08:13:13;2.40;;;0.80;;
43626;SDS011;29217;52.586;13.442;2023-04-24T08:15:39;1.58;;;0.80;;
43626;SDS011;29217;52.586;13.442;2023-04-24T08:18:05;0.90;;;0.80;;
43626;SDS011;29217;52.586;13.442;2023-04-24T08:20:31;1.23;;;1.00;;
43626;SDS011;29217;52.586;13.442;2023-04-24T08:22:57;0.75;;;0.75;;
43626;SDS011;29217;52.586;13.442;2023-04-24T08:25:23;3.17;;;0.70;;
43626;SDS011;29217;52.586;13.442;2023-04-24T08:27:50;1.70;;;1.15;;
43626;SDS011;29217;52.586;13.442;2023-04-24T08:30:16;0.80;;;0.70;;
43626;SDS011;29217;52.586;13.442;2023-04-24T08:32:42;1.10;;;0.63;;
43626;SDS011;29217;52.586;13.442;2023-04-24T08:35:08;0.70;;;0.70;;
43626;SDS011;29217;52.586;13.442;2023-04-24T08:37:34;0.95;;;0.73;;
43626;SDS011;29217;52.586;13.442;2023-04-24T08:40:01;0.80;;;0.70;;
43626;SDS011;29217;52.586;13.442;2023-04-24T08:42:28;1.33;;;0.73;;
43626;SDS011;29217;52.586;13.442;2023-04-24T08:44:54;0.60;;;0.57;;
43626;SDS011;29217;52.586;13.442;2023-04-24T08:47:20;0.70;;;0.70;;
43626;SDS011;29217;52.586;13.442;2023-04-24T08:49:46;6.53;;;1.05;;
43626;SDS011;29217;52.586;13.442;2023-04-24T08:52:13;1.85;;;0.70;;
43626;SDS011;29217;52.586;13.442;2023-04-24T08:54:39;1.20;;;0.70;;
43626;SDS011;29217;52.586;13.442;2023-04-24T08:57:08;0.93;;;0.77;;
43626;SDS011;29217;52.586;13.442;2023-04-24T08:59:36;0.60;;;0.57;;
43626;SDS011;29217;52.586;13.442;2023-04-24T09:02:03;1.27;;;1.17;;
43626;SDS011;29217;52.586;13.442;2023-04-24T09:04:29;2.67;;;0.80;;
43626;SDS011;29217;52.586;13.442;2023-04-24T09:06:56;6.63;;;1.10;;
43626;SDS011;29217;52.586;13.442;2023-04-24T09:09:23;3.05;;;0.93;;
43626;SDS011;29217;52.586;13.442;2023-04-24T09:11:50;1.02;;;0.80;;
43626;SDS011;29217;52.586;13.442;2023-04-24T09:14:18;0.77;;;0.70;;
43626;SDS011;29217;52.586;13.442;2023-04-24T09:16:45;0.60;;;0.60;;
43626;SDS011;29217;52.586;13.442;2023-04-24T09:19:11;1.67;;;0.70;;
43626;SDS011;29217;52.586;13.442;2023-04-24T09:21:37;0.50;;;0.50;;
43626;SDS011;29217;52.586;13.442;2023-04-24T09:24:07;13.65;;;1.02;;
43626;SDS011;29217;52.586;13.442;2023-04-24T09:26:36;3.28;;;0.88;;
43626;SDS011;29217;52.586;13.442;2023-04-24T09:29:02;5.65;;;0.80;;
43626;SDS011;29217;52.586;13.442;2023-04-24T09:31:29;1.70;;;0.80;;
43626;SDS011;29217;52.586;13.442;2023-04-24T09:34:00;1.23;;;0.65;;
43626;SDS011;29217;52.586;13.442;2023-04-24T09:36:27;1.30;;;0.60;;
43626;SDS011;29217;52.586;13.442;2023-04-24T09:38:57;0.70;;;0.60;;
43626;SDS011;29217;52.586;13.442;2023-04-24T09:41:23;2.15;;;0.65;;
43626;SDS011;29217;52.586;13.442;2023-04-24T09:43:49;0.80;;;0.80;;
43626;SDS011;29217;52.586;13.442;2023-04-24T09:46:15;1.80;;;0.60;;
43626;SDS011;29217;52.586;13.442;2023-04-24T09:48:44;1.92;;;0.85;;
43626;SDS011;29217;52.586;13.442;2023-04-24T09:51:10;8.55;;;1.05;;
43626;SDS011;29217;52.586;13.442;2023-04-24T09:53:36;1.02;;;0.90;;
43626;SDS011;29217;52.586;13.442;2023-04-24T09:56:05;0.95;;;0.68;;
43626;SDS011;29217;52.586;13.442;2023-04-24T09:58:34;1.73;;;0.88;;
43626;SDS011;29217;52.586;13.442;2023-04-24T10:01:01;0.80;;;0.52;;
43626;SDS011;29217;52.586;13.442;2023-04-24T10:03:29;1.17;;;0.80;;
43626;SDS011;29217;52.586;13.442;2023-04-24T10:05:58;5.95;;;0.88;;
43626;SDS011;29217;52.586;13.442;2023-04-24T10:08:24;0.70;;;0.70;;
43626;SDS011;29217;52.586;13.442;2023-04-24T10:10:51;3.17;;;0.82;;
43626;SDS011;29217;52.586;13.442;2023-04-24T10:13:17;0.90;;;0.82;;
43626;SDS011;29217;52.586;13.442;2023-04-24T10:15:44;4.13;;;0.70;;
43626;SDS011;29217;52.586;13.442;2023-04-24T10:18:10;2.55;;;0.80;;
43626;SDS011;29217;52.586;13.442;2023-04-24T10:20:37;1.30;;;0.73;;
43626;SDS011;29217;52.586;13.442;2023-04-24T10:23:04;1.60;;;0.90;;
43626;SDS011;29217;52.586;13.442;2023-04-24T10:25:31;2.50;;;0.63;;
43626;SDS011;29217;52.586;13.442;2023-04-24T10:27:58;1.55;;;0.60;;
43626;SDS011;29217;52.586;13.442;2023-04-24T10:30:25;0.70;;;0.65;;
43626;SDS011;29217;52.586;13.442;2023-04-24T10:32:51;3.05;;;0.80;;
43626;SDS011;29217;52.586;13.442;2023-04-24T10:35:17;1.15;;;0.80;;
43626;SDS011;29217;52.586;13.442;2023-04-24T10:37:50;2.40;;;0.80;;
43626;SDS011;29217;52.586;13.442;2023-04-24T10:40:17;1.30;;;0.65;;
43626;SDS011;29217;52.586;13.442;2023-04-24T10:42:46;2.55;;;0.80;;
43626;SDS011;29217;52.586;13.442;2023-04-24T10:45:19;2.03;;;0.60;;
43626;SDS011;29217;52.586;13.442;2023-04-24T10:47:53;1.45;;;0.88;;
43626;SDS011;29217;52.586;13.442;2023-04-24T10:50:19;0.75;;;0.60;;
43626;SDS011;29217;52.586;13.442;2023-04-24T10:52:48;1.83;;;0.95;;
43626;SDS011;29217;52.586;13.442;2023-04-24T10:55:16;1.38;;;0.70;;
43626;SDS011;29217;52.586;13.442;2023-04-24T10:58:01;1.98;;;0.70;;
43626;SDS011;29217;52.586;13.442;2023-04-24T11:00:28;1.38;;;0.77;;
43626;SDS011;29217;52.586;13.442;2023-04-24T11:02:54;1.08;;;0.60;;
43626;SDS011;29217;52.586;13.442;2023-04-24T11:05:21;0.85;;;0.70;;
43626;SDS011;29217;52.586;13.442;2023-04-24T11:10:32;0.82;;;0.68;;
43626;SDS011;29217;52.586;13.442;2023-04-24T11:12:58;6.03;;;0.80;;
43626;SDS011;29217;52.586;13.442;2023-04-24T11:15:24;5.05;;;0.88;;
43626;SDS011;29217;52.586;13.442;2023-04-24T11:17:50;2.20;;;0.75;;
43626;SDS011;29217;52.586;13.442;2023-04-24T11:20:22;0.50;;;0.50;;
43626;SDS011;29217;52.586;13.442;2023-04-24T11:22:50;2.17;;;0.70;;
43626;SDS011;29217;52.586;13.442;2023-04-24T11:25:18;1.00;;;0.65;;
43626;SDS011;29217;52.586;13.442;2023-04-24T11:27:44;0.70;;;0.50;;
43626;SDS011;29217;52.586;13.442;2023-04-24T11:30:11;3.33;;;0.70;;
43626;SDS011;29217;52.586;13.442;2023-04-24T11:32:41;1.33;;;0.65;;
43626;SDS011;29217;52.586;13.442;2023-04-24T11:35:17;4.55;;;0.70;;
43626;SDS011;29217;52.586;13.442;2023-04-24T11:37:45;1.75;;;0.68;;
43626;SDS011;29217;52.586;13.442;2023-04-24T11:40:11;1.65;;;0.80;;
43626;SDS011;29217;52.586;13.442;2023-04-24T11:42:39;1.35;;;0.60;;
43626;SDS011;29217;52.586;13.442;2023-04-24T11:45:08;1.75;;;0.70;;
43626;SDS011;29217;52.586;13.442;2023-04-24T11:47:35;0.77;;;0.70;;
43626;SDS011;29217;52.586;13.442;2023-04-24T11:50:01;1.67;;;0.90;;
43626;SDS011;29217;52.586;13.442;2023-04-24T11:52:28;0.90;;;0.80;;
43626;SDS011;29217;52.586;13.442;2023-04-24T11:54:54;1.85;;;0.98;;
43626;SDS011;29217;52.586;13.442;2023-04-24T11:57:21;3.28;;;0.95;;
43626;SDS011;29217;52.586;13.442;2023-04-24T11:59:47;2.88;;;1.02;;
43626;SDS011;29217;52.586;13.442;2023-04-24T12:02:23;4.13;;;1.00;;
43626;SDS011;29217;52.586;13.442;2023-04-24T12:04:49;3.42;;;1.98;;
43626;SDS011;29217;52.586;13.442;2023-04-24T12:07:15;2.05;;;1.02;;
43626;SDS011;29217;52.586;13.442;2023-04-24T12:12:08;1.90;;;0.70;;
43626;SDS011;29217;52.586;13.442;2023-04-24T12:14:44;3.38;;;0.93;;
43626;SDS011;29217;52.586;13.442;2023-04-24T12:17:10;2.50;;;0.75;;
43626;SDS011;29217;52.586;13.442;2023-04-24T12:19:36;1.33;;;0.70;;
43626;SDS011;29217;52.586;13.442;2023-04-24T12:22:02;1.13;;;0.60;;
43626;SDS011;29217;52.586;13.442;2023-04-24T12:24:29;1.27;;;0.60;;
43626;SDS011;29217;52.586;13.442;2023-04-24T12:26:56;2.72;;;0.70;;
43626;SDS011;29217;52.586;13.442;2023-04-24T12:29:23;0.88;;;0.65;;
43626;SDS011;29217;52.586;13.442;2023-04-24T12:31:49;1.33;;;0.80;;
43626;SDS011;29217;52.586;13.442;2023-04-24T12:34:22;1.73;;;0.80;;
43626;SDS011;29217;52.586;13.442;2023-04-24T12:36:49;1.75;;;0.73;;
43626;SDS011;29217;52.586;13.442;2023-04-24T12:39:18;1.10;;;0.80;;
43626;SDS011;29217;52.586;13.442;2023-04-24T12:41:54;1.90;;;1.00;;
43626;SDS011;29217;52.586;13.442;2023-04-24T12:44:28;1.70;;;0.90;;
43626;SDS011;29217;52.586;13.442;2023-04-24T12:46:55;2.28;;;1.10;;
43626;SDS011;29217;52.586;13.442;2023-04-24T12:49:21;1.77;;;0.98;;
43626;SDS011;29217;52.586;13.442;2023-04-24T12:51:47;2.22;;;1.00;;
43626;SDS011;29217;52.586;13.442;2023-04-24T12:54:13;1.15;;;0.90;;
43626;SDS011;29217;52.586;13.442;2023-04-24T12:56:39;1.23;;;0.75;;
43626;SDS011;29217;52.586;13.442;2023-04-24T12:59:05;3.13;;;0.70;;
43626;SDS011;29217;52.586;13.442;2023-04-24T13:01:31;1.83;;;0.85;;
43626;SDS011;29217;52.586;13.442;2023-04-24T13:03:57;1.80;;;0.70;;
43626;SDS011;29217;52.586;13.442;2023-04-24T13:06:23;1.30;;;0.63;;
43626;SDS011;29217;52.586;13.442;2023-04-24T13:08:49;0.95;;;0.73;;
43626;SDS011;29217;52.586;13.442;2023-04-24T13:11:16;4.32;;;0.85;;
43626;SDS011;29217;52.586;13.442;2023-04-24T13:13:42;3.38;;;0.80;;
43626;SDS011;29217;52.586;13.442;2023-04-24T13:16:08;1.88;;;0.90;;
43626;SDS011;29217;52.586;13.442;2023-04-24T13:18:35;4.45;;;0.70;;
43626;SDS011;29217;52.586;13.442;2023-04-24T13:21:01;2.40;;;0.88;;
43626;SDS011;29217;52.586;13.442;2023-04-24T13:23:27;2.58;;;0.95;;
43626;SDS011;29217;52.586;13.442;2023-04-24T13:25:54;3.03;;;1.08;;
43626;SDS011;29217;52.586;13.442;2023-04-24T13:28:23;1.10;;;0.90;;
43626;SDS011;29217;52.586;13.442;2023-04-24T13:30:49;1.15;;;0.80;;
43626;SDS011;29217;52.586;13.442;2023-04-24T13:33:15;1.70;;;1.10;;
43626;SDS011;29217;52.586;13.442;2023-04-24T13:35:41;3.88;;;1.08;;
43626;SDS011;29217;52.586;13.442;2023-04-24T13:38:07;2.92;;;1.10;;
43626;SDS011;29217;52.586;13.442;2023-04-24T13:40:33;1.98;;;0.90;;
43626;SDS011;29217;52.586;13.442;2023-04-24T13:42:59;1.67;;;1.00;;
43626;SDS011;29217;52.586;13.442;2023-04-24T13:45:26;1.75;;;1.10;;
43626;SDS011;29217;52.586;13.442;2023-04-24T13:47:52;1.20;;;0.80;;
43626;SDS011;29217;52.586;13.442;2023-04-24T13:50:18;3.33;;;1.10;;
43626;SDS011;29217;52.586;13.442;2023-04-24T13:52:44;1.20;;;0.85;;
43626;SDS011;29217;52.586;13.442;2023-04-24T13:55:10;1.20;;;0.90;;
43626;SDS011;29217;52.586;13.442;2023-04-24T13:57:36;2.63;;;1.00;;
43626;SDS011;29217;52.586;13.442;2023-04-24T14:00:03;2.83;;;0.90;;
43626;SDS011;29217;52.586;13.442;2023-04-24T14:02:29;1.73;;;0.90;;
43626;SDS011;29217;52.586;13.442;2023-04-24T14:04:55;0.93;;;0.85;;
43626;SDS011;29217;52.586;13.442;2023-04-24T14:07:21;0.93;;;0.80;;
43626;SDS011;29217;52.586;13.442;2023-04-24T14:09:47;3.08;;;0.80;;
43626;SDS011;29217;52.586;13.442;2023-04-24T14:12:13;1.35;;;0.80;;
43626;SDS011;29217;52.586;13.442;2023-04-24T14:14:41;1.50;;;0.77;;
43626;SDS011;29217;52.586;13.442;2023-04-24T14:17:07;1.35;;;0.63;;
43626;SDS011;29217;52.586;13.442;2023-04-24T14:19:33;3.35;;;0.80;;
43626;SDS011;29217;52.586;13.442;2023-04-24T14:22:00;1.10;;;0.88;;
43626;SDS011;29217;52.586;13.442;2023-04-24T14:24:25;3.05;;;1.00;;
43626;SDS011;29217;52.586;13.442;2023-04-24T14:26:51;1.15;;;0.95;;
43626;SDS011;29217;52.586;13.442;2023-04-24T14:29:17;3.63;;;0.93;;
43626;SDS011;29217;52.586;13.442;2023-04-24T14:31:44;6.05;;;0.90;;
43626;SDS011;29217;52.586;13.442;2023-04-24T14:34:10;1.38;;;0.88;;